sensor_id;sensor_type;location;lat;lon;timestamp;P1;durP1;ratioP1;P2;durP2;ratioP2
69404;SDS011;57084;52.046;5.632;2023-01-23T00:00:00;21.6;;;19.3;;
69404;SDS011;57084;52.046;5.632;2023-01-23T00:01:03;21.6;;;19.3;;
69404;SDS011;57084;52.046;5.632;2023-01-23T00:02:00;21.6;;;19.3;;
69404;SDS011;57084;52.046;5.632;2023-01-23T00:03:00;23.7;;;19.5;;
69404;SDS011;57084;52.046;5.632;2023-01-23T00:04:01;23.7;;;19.5;;
69404;SDS011;57084;52.046;5.632;2023-01-23T00:05:00;23.7;;;19.5;;
69404;SDS011;57084;52.046;5.632;2023-01-23T00:06:02;23.7;;;19.5;;
69404;SDS011;57084;52.046;5.632;2023-01-23T00:07:00;23.7;;;19.5;;
69404;SDS011;57084;52.046;5.632;2023-01-23T00:08:00;21.1;;;18.8;;
69404;SDS011;57084;52.046;5.632;2023-01-23T00:09:00;21.1;;;18.8;;
69404;SDS011;57084;52.046;5.632;2023-01-23T00:10:00;21.1;;;18.8;;
69404;SDS011;57084;52.046;5.632;2023-01-23T00:11:03;21.1;;;18.8;;
69404;SDS011;57084;52.046;5.632;2023-01-23T00:12:00;21.1;;;18.8;;
69404;SDS011;57084;52.046;5.632;2023-01-23T00:13:00;19.7;;;17.8;;
69404;SDS011;57084;52.046;5.632;2023-01-23T00:14:01;19.7;;;17.8;;
69404;SDS011;57084;52.046;5.632;2023-01-23T00:15:00;19.7;;;17.8;;
69404;SDS011;57084;52.046;5.632;2023-01-23T00:16:03;19.7;;;17.8;;
69404;SDS011;57084;52.046;5.632;2023-01-23T00:17:00;19.7;;;17.8;;
69404;SDS011;57084;52.046;5.632;2023-01-23T00:18:00;21.0;;;18.8;;
69404;SDS011;57084;52.046;5.632;2023-01-23T00:19:00;21.0;;;18.8;;
69404;SDS011;57084;52.046;5.632;2023-01-23T00:20:00;21.0;;;18.8;;
69404;SDS011;57084;52.046;5.632;2023-01-23T00:21:03;21.0;;;18.8;;
69404;SDS011;57084;52.046;5.632;2023-01-23T00:22:00;21.0;;;18.8;;
69404;SDS011;57084;52.046;5.632;2023-01-23T00:23:00;21.5;;;19.3;;
69404;SDS011;57084;52.046;5.632;2023-01-23T00:24:00;21.5;;;19.3;;
69404;SDS011;57084;52.046;5.632;2023-01-23T00:25:00;21.5;;;19.3;;
69404;SDS011;57084;52.046;5.632;2023-01-23T00:26:02;21.5;;;19.3;;
69404;SDS011;57084;52.046;5.632;2023-01-23T00:27:00;21.5;;;19.3;;
69404;SDS011;57084;52.046;5.632;2023-01-23T00:28:01;22.1;;;18.8;;
69404;SDS011;57084;52.046;5.632;2023-01-23T00:29:00;22.1;;;18.8;;
69404;SDS011;57084;52.046;5.632;2023-01-23T00:30:00;22.1;;;18.8;;
69404;SDS011;57084;52.046;5.632;2023-01-23T00:31:01;22.1;;;18.8;;
69404;SDS011;57084;52.046;5.632;2023-01-23T00:32:00;22.1;;;18.8;;
69404;SDS011;57084;52.046;5.632;2023-01-23T00:33:00;22.1;;;18.8;;
69404;SDS011;57084;52.046;5.632;2023-01-23T00:34:02;36.4;;;24.4;;
69404;SDS011;57084;52.046;5.632;2023-01-23T00:35:00;36.4;;;24.4;;
69404;SDS011;57084;52.046;5.632;2023-01-23T00:36:01;36.4;;;24.4;;
69404;SDS011;57084;52.046;5.632;2023-01-23T00:37:00;36.4;;;24.4;;
69404;SDS011;57084;52.046;5.632;2023-01-23T00:38:00;36.4;;;24.4;;
69404;SDS011;57084;52.046;5.632;2023-01-23T00:39:01;30.9;;;19.9;;
69404;SDS011;57084;52.046;5.632;2023-01-23T00:40:00;30.9;;;19.9;;
69404;SDS011;57084;52.046;5.632;2023-01-23T00:41:00;30.9;;;19.9;;
69404;SDS011;57084;52.046;5.632;2023-01-23T00:42:00;30.9;;;19.9;;
69404;SDS011;57084;52.046;5.632;2023-01-23T00:43:00;30.9;;;19.9;;
69404;SDS011;57084;52.046;5.632;2023-01-23T00:44:00;25.9;;;20.2;;
69404;SDS011;57084;52.046;5.632;2023-01-23T00:45:00;25.9;;;20.2;;
69404;SDS011;57084;52.046;5.632;2023-01-23T00:46:00;25.9;;;20.2;;
69404;SDS011;57084;52.046;5.632;2023-01-23T00:47:00;25.9;;;20.2;;
69404;SDS011;57084;52.046;5.632;2023-01-23T00:48:00;25.9;;;20.2;;
69404;SDS011;57084;52.046;5.632;2023-01-23T00:49:00;22.3;;;19.9;;
69404;SDS011;57084;52.046;5.632;2023-01-23T00:50:00;22.3;;;19.9;;
69404;SDS011;57084;52.046;5.632;2023-01-23T00:51:00;22.3;;;19.9;;
69404;SDS011;57084;52.046;5.632;2023-01-23T00:52:00;22.3;;;19.9;;
69404;SDS011;57084;52.046;5.632;2023-01-23T00:53:00;22.3;;;19.9;;
69404;SDS011;57084;52.046;5.632;2023-01-23T00:54:00;20.0;;;18.0;;
69404;SDS011;57084;52.046;5.632;2023-01-23T00:55:00;20.0;;;18.0;;
69404;SDS011;57084;52.046;5.632;2023-01-23T00:56:00;20.0;;;18.0;;
69404;SDS011;57084;52.046;5.632;2023-01-23T00:57:00;20.0;;;18.0;;
69404;SDS011;57084;52.046;5.632;2023-01-23T00:58:00;20.0;;;18.0;;
69404;SDS011;57084;52.046;5.632;2023-01-23T00:59:00;20.4;;;18.4;;
69404;SDS011;57084;52.046;5.632;2023-01-23T01:00:00;20.4;;;18.4;;
69404;SDS011;57084;52.046;5.632;2023-01-23T01:01:00;20.4;;;18.4;;
69404;SDS011;57084;52.046;5.632;2023-01-23T01:02:00;20.4;;;18.4;;
69404;SDS011;57084;52.046;5.632;2023-01-23T01:03:01;20.4;;;18.4;;
69404;SDS011;57084;52.046;5.632;2023-01-23T01:04:00;20.2;;;18.1;;
69404;SDS011;57084;52.046;5.632;2023-01-23T01:05:00;20.2;;;18.1;;
69404;SDS011;57084;52.046;5.632;2023-01-23T01:06:01;20.2;;;18.1;;
69404;SDS011;57084;52.046;5.632;2023-01-23T01:07:00;20.2;;;18.1;;
69404;SDS011;57084;52.046;5.632;2023-01-23T01:08:00;20.2;;;18.1;;
69404;SDS011;57084;52.046;5.632;2023-01-23T01:09:01;20.7;;;18.3;;
69404;SDS011;57084;52.046;5.632;2023-01-23T01:10:00;20.7;;;18.3;;
69404;SDS011;57084;52.046;5.632;2023-01-23T01:11:00;20.7;;;18.3;;
69404;SDS011;57084;52.046;5.632;2023-01-23T01:12:00;20.7;;;18.3;;
69404;SDS011;57084;52.046;5.632;2023-01-23T01:13:02;20.7;;;18.3;;
69404;SDS011;57084;52.046;5.632;2023-01-23T01:14:00;20.0;;;18.0;;
69404;SDS011;57084;52.046;5.632;2023-01-23T01:15:00;20.0;;;18.0;;
69404;SDS011;57084;52.046;5.632;2023-01-23T01:16:00;20.0;;;18.0;;
69404;SDS011;57084;52.046;5.632;2023-01-23T01:17:00;20.0;;;18.0;;
69404;SDS011;57084;52.046;5.632;2023-01-23T01:18:00;20.0;;;18.0;;
69404;SDS011;57084;52.046;5.632;2023-01-23T01:19:00;22.0;;;19.9;;
69404;SDS011;57084;52.046;5.632;2023-01-23T01:20:02;22.0;;;19.9;;
69404;SDS011;57084;52.046;5.632;2023-01-23T01:21:05;22.0;;;19.9;;
69404;SDS011;57084;52.046;5.632;2023-01-23T01:22:00;22.0;;;19.9;;
69404;SDS011;57084;52.046;5.632;2023-01-23T01:23:00;22.0;;;19.9;;
69404;SDS011;57084;52.046;5.632;2023-01-23T01:24:00;20.3;;;18.4;;
69404;SDS011;57084;52.046;5.632;2023-01-23T01:25:00;20.3;;;18.4;;
69404;SDS011;57084;52.046;5.632;2023-01-23T01:26:00;20.3;;;18.4;;
69404;SDS011;57084;52.046;5.632;2023-01-23T01:27:00;20.3;;;18.4;;
69404;SDS011;57084;52.046;5.632;2023-01-23T01:28:00;20.3;;;18.4;;
69404;SDS011;57084;52.046;5.632;2023-01-23T01:29:01;20.3;;;18.3;;
69404;SDS011;57084;52.046;5.632;2023-01-23T01:30:00;20.3;;;18.3;;
69404;SDS011;57084;52.046;5.632;2023-01-23T01:31:05;20.3;;;18.3;;
69404;SDS011;57084;52.046;5.632;2023-01-23T01:32:00;20.3;;;18.3;;
69404;SDS011;57084;52.046;5.632;2023-01-23T01:33:00;20.3;;;18.3;;
69404;SDS011;57084;52.046;5.632;2023-01-23T01:34:00;19.7;;;17.8;;
69404;SDS011;57084;52.046;5.632;2023-01-23T01:35:00;19.7;;;17.8;;
69404;SDS011;57084;52.046;5.632;2023-01-23T01:36:00;19.7;;;17.8;;
69404;SDS011;57084;52.046;5.632;2023-01-23T01:37:00;19.7;;;17.8;;
69404;SDS011;57084;52.046;5.632;2023-01-23T01:38:00;19.7;;;17.8;;
69404;SDS011;57084;52.046;5.632;2023-01-23T01:39:01;19.6;;;17.7;;
69404;SDS011;57084;52.046;5.632;2023-01-23T01:40:00;19.6;;;17.7;;
69404;SDS011;57084;52.046;5.632;2023-01-23T01:41:00;19.6;;;17.7;;
69404;SDS011;57084;52.046;5.632;2023-01-23T01:42:00;19.6;;;17.7;;
69404;SDS011;57084;52.046;5.632;2023-01-23T01:43:03;19.6;;;17.7;;
69404;SDS011;57084;52.046;5.632;2023-01-23T01:44:00;19.1;;;17.2;;
69404;SDS011;57084;52.046;5.632;2023-01-23T01:45:01;19.1;;;17.2;;
69404;SDS011;57084;52.046;5.632;2023-01-23T01:46:09;19.1;;;17.2;;
69404;SDS011;57084;52.046;5.632;2023-01-23T01:47:00;19.1;;;17.2;;
69404;SDS011;57084;52.046;5.632;2023-01-23T01:48:00;19.1;;;17.2;;
69404;SDS011;57084;52.046;5.632;2023-01-23T01:49:03;20.9;;;18.0;;
69404;SDS011;57084;52.046;5.632;2023-01-23T01:50:03;20.9;;;18.0;;
69404;SDS011;57084;52.046;5.632;2023-01-23T01:51:03;20.9;;;18.0;;
69404;SDS011;57084;52.046;5.632;2023-01-23T01:52:04;20.9;;;18.0;;
69404;SDS011;57084;52.046;5.632;2023-01-23T01:53:00;20.9;;;18.0;;
69404;SDS011;57084;52.046;5.632;2023-01-23T01:54:07;18.7;;;16.7;;
69404;SDS011;57084;52.046;5.632;2023-01-23T01:55:02;18.7;;;16.7;;
69404;SDS011;57084;52.046;5.632;2023-01-23T01:56:01;18.7;;;16.7;;
69404;SDS011;57084;52.046;5.632;2023-01-23T01:57:03;18.7;;;16.7;;
69404;SDS011;57084;52.046;5.632;2023-01-23T01:58:00;18.7;;;16.7;;
69404;SDS011;57084;52.046;5.632;2023-01-23T01:59:01;23.2;;;17.1;;
69404;SDS011;57084;52.046;5.632;2023-01-23T02:00:05;23.2;;;17.1;;
69404;SDS011;57084;52.046;5.632;2023-01-23T02:01:00;23.2;;;17.1;;
69404;SDS011;57084;52.046;5.632;2023-01-23T02:02:03;23.2;;;17.1;;
69404;SDS011;57084;52.046;5.632;2023-01-23T02:03:01;23.2;;;17.1;;
69404;SDS011;57084;52.046;5.632;2023-01-23T02:04:00;20.5;;;16.8;;
69404;SDS011;57084;52.046;5.632;2023-01-23T02:05:04;20.5;;;16.8;;
69404;SDS011;57084;52.046;5.632;2023-01-23T02:06:00;20.5;;;16.8;;
69404;SDS011;57084;52.046;5.632;2023-01-23T02:07:04;20.5;;;16.8;;
69404;SDS011;57084;52.046;5.632;2023-01-23T02:08:05;20.5;;;16.8;;
69404;SDS011;57084;52.046;5.632;2023-01-23T02:09:03;22.3;;;18.2;;
69404;SDS011;57084;52.046;5.632;2023-01-23T02:10:03;22.3;;;18.2;;
69404;SDS011;57084;52.046;5.632;2023-01-23T02:11:00;22.3;;;18.2;;
69404;SDS011;57084;52.046;5.632;2023-01-23T02:12:00;22.3;;;18.2;;
69404;SDS011;57084;52.046;5.632;2023-01-23T02:13:17;22.3;;;18.2;;
69404;SDS011;57084;52.046;5.632;2023-01-23T02:14:00;19.5;;;17.6;;
69404;SDS011;57084;52.046;5.632;2023-01-23T02:15:01;19.5;;;17.6;;
69404;SDS011;57084;52.046;5.632;2023-01-23T02:16:03;19.5;;;17.6;;
69404;SDS011;57084;52.046;5.632;2023-01-23T02:17:00;19.5;;;17.6;;
69404;SDS011;57084;52.046;5.632;2023-01-23T02:18:01;19.5;;;17.6;;
69404;SDS011;57084;52.046;5.632;2023-01-23T02:19:03;19.8;;;17.7;;
69404;SDS011;57084;52.046;5.632;2023-01-23T02:20:04;19.8;;;17.7;;
69404;SDS011;57084;52.046;5.632;2023-01-23T02:21:04;19.8;;;17.7;;
69404;SDS011;57084;52.046;5.632;2023-01-23T02:22:07;19.8;;;17.7;;
69404;SDS011;57084;52.046;5.632;2023-01-23T02:23:04;19.8;;;17.7;;
69404;SDS011;57084;52.046;5.632;2023-01-23T02:24:11;20.5;;;18.0;;
69404;SDS011;57084;52.046;5.632;2023-01-23T02:25:07;20.5;;;18.0;;
69404;SDS011;57084;52.046;5.632;2023-01-23T02:26:04;20.5;;;18.0;;
69404;SDS011;57084;52.046;5.632;2023-01-23T02:27:00;20.5;;;18.0;;
69404;SDS011;57084;52.046;5.632;2023-01-23T02:28:00;20.5;;;18.0;;
69404;SDS011;57084;52.046;5.632;2023-01-23T02:29:01;20.5;;;18.0;;
69404;SDS011;57084;52.046;5.632;2023-01-23T02:30:00;26.9;;;19.2;;
69404;SDS011;57084;52.046;5.632;2023-01-23T02:31:00;26.9;;;19.2;;
69404;SDS011;57084;52.046;5.632;2023-01-23T02:32:00;26.9;;;19.2;;
69404;SDS011;57084;52.046;5.632;2023-01-23T02:33:08;26.9;;;19.2;;
69404;SDS011;57084;52.046;5.632;2023-01-23T02:34:00;26.9;;;19.2;;
69404;SDS011;57084;52.046;5.632;2023-01-23T02:35:13;21.1;;;17.9;;
69404;SDS011;57084;52.046;5.632;2023-01-23T02:36:02;21.1;;;17.9;;
69404;SDS011;57084;52.046;5.632;2023-01-23T02:37:00;21.1;;;17.9;;
69404;SDS011;57084;52.046;5.632;2023-01-23T02:38:02;21.1;;;17.9;;
69404;SDS011;57084;52.046;5.632;2023-01-23T02:39:04;21.1;;;17.9;;
69404;SDS011;57084;52.046;5.632;2023-01-23T02:40:00;25.4;;;18.6;;
69404;SDS011;57084;52.046;5.632;2023-01-23T02:41:03;25.4;;;18.6;;
69404;SDS011;57084;52.046;5.632;2023-01-23T02:42:01;25.4;;;18.6;;
69404;SDS011;57084;52.046;5.632;2023-01-23T02:43:02;25.4;;;18.6;;
69404;SDS011;57084;52.046;5.632;2023-01-23T02:44:03;25.4;;;18.6;;
69404;SDS011;57084;52.046;5.632;2023-01-23T02:45:00;21.3;;;19.2;;
69404;SDS011;57084;52.046;5.632;2023-01-23T02:46:00;21.3;;;19.2;;
69404;SDS011;57084;52.046;5.632;2023-01-23T02:47:03;21.3;;;19.2;;
69404;SDS011;57084;52.046;5.632;2023-01-23T02:48:00;21.3;;;19.2;;
69404;SDS011;57084;52.046;5.632;2023-01-23T02:49:00;21.3;;;19.2;;
69404;SDS011;57084;52.046;5.632;2023-01-23T02:50:00;19.5;;;17.7;;
69404;SDS011;57084;52.046;5.632;2023-01-23T02:51:00;19.5;;;17.7;;
69404;SDS011;57084;52.046;5.632;2023-01-23T02:52:00;19.5;;;17.7;;
69404;SDS011;57084;52.046;5.632;2023-01-23T02:53:00;19.5;;;17.7;;
69404;SDS011;57084;52.046;5.632;2023-01-23T02:54:00;19.5;;;17.7;;
69404;SDS011;57084;52.046;5.632;2023-01-23T02:55:00;21.0;;;19.0;;
69404;SDS011;57084;52.046;5.632;2023-01-23T02:56:00;21.0;;;19.0;;
69404;SDS011;57084;52.046;5.632;2023-01-23T02:57:01;21.0;;;19.0;;
69404;SDS011;57084;52.046;5.632;2023-01-23T02:58:00;21.0;;;19.0;;
69404;SDS011;57084;52.046;5.632;2023-01-23T02:59:00;21.0;;;19.0;;
69404;SDS011;57084;52.046;5.632;2023-01-23T03:00:00;25.4;;;19.6;;
69404;SDS011;57084;52.046;5.632;2023-01-23T03:01:01;25.4;;;19.6;;
69404;SDS011;57084;52.046;5.632;2023-01-23T03:02:00;25.4;;;19.6;;
69404;SDS011;57084;52.046;5.632;2023-01-23T03:03:00;25.4;;;19.6;;
69404;SDS011;57084;52.046;5.632;2023-01-23T03:04:01;25.4;;;19.6;;
69404;SDS011;57084;52.046;5.632;2023-01-23T03:05:00;19.5;;;17.4;;
69404;SDS011;57084;52.046;5.632;2023-01-23T03:06:00;19.5;;;17.4;;
69404;SDS011;57084;52.046;5.632;2023-01-23T03:07:00;19.5;;;17.4;;
69404;SDS011;57084;52.046;5.632;2023-01-23T03:08:00;19.5;;;17.4;;
69404;SDS011;57084;52.046;5.632;2023-01-23T03:09:03;19.5;;;17.4;;
69404;SDS011;57084;52.046;5.632;2023-01-23T03:10:01;20.6;;;18.4;;
69404;SDS011;57084;52.046;5.632;2023-01-23T03:11:01;20.6;;;18.4;;
69404;SDS011;57084;52.046;5.632;2023-01-23T03:12:00;20.6;;;18.4;;
69404;SDS011;57084;52.046;5.632;2023-01-23T03:13:00;20.6;;;18.4;;
69404;SDS011;57084;52.046;5.632;2023-01-23T03:14:00;20.6;;;18.4;;
69404;SDS011;57084;52.046;5.632;2023-01-23T03:15:00;20.2;;;18.0;;
69404;SDS011;57084;52.046;5.632;2023-01-23T03:16:00;20.2;;;18.0;;
69404;SDS011;57084;52.046;5.632;2023-01-23T03:17:00;20.2;;;18.0;;
69404;SDS011;57084;52.046;5.632;2023-01-23T03:18:00;20.2;;;18.0;;
69404;SDS011;57084;52.046;5.632;2023-01-23T03:19:00;20.2;;;18.0;;
69404;SDS011;57084;52.046;5.632;2023-01-23T03:20:00;19.3;;;17.3;;
69404;SDS011;57084;52.046;5.632;2023-01-23T03:21:01;19.3;;;17.3;;
69404;SDS011;57084;52.046;5.632;2023-01-23T03:22:00;19.3;;;17.3;;
69404;SDS011;57084;52.046;5.632;2023-01-23T03:23:00;19.3;;;17.3;;
69404;SDS011;57084;52.046;5.632;2023-01-23T03:24:02;19.3;;;17.3;;
69404;SDS011;57084;52.046;5.632;2023-01-23T03:25:00;20.6;;;18.5;;
69404;SDS011;57084;52.046;5.632;2023-01-23T03:26:00;20.6;;;18.5;;
69404;SDS011;57084;52.046;5.632;2023-01-23T03:27:01;20.6;;;18.5;;
69404;SDS011;57084;52.046;5.632;2023-01-23T03:28:00;20.6;;;18.5;;
69404;SDS011;57084;52.046;5.632;2023-01-23T03:29:00;20.6;;;18.5;;
69404;SDS011;57084;52.046;5.632;2023-01-23T03:30:00;24.1;;;19.2;;
69404;SDS011;57084;52.046;5.632;2023-01-23T03:31:01;24.1;;;19.2;;
69404;SDS011;57084;52.046;5.632;2023-01-23T03:32:01;24.1;;;19.2;;
69404;SDS011;57084;52.046;5.632;2023-01-23T03:33:00;24.1;;;19.2;;
69404;SDS011;57084;52.046;5.632;2023-01-23T03:34:00;24.1;;;19.2;;
69404;SDS011;57084;52.046;5.632;2023-01-23T03:35:00;21.8;;;18.7;;
69404;SDS011;57084;52.046;5.632;2023-01-23T03:36:00;21.8;;;18.7;;
69404;SDS011;57084;52.046;5.632;2023-01-23T03:37:02;21.8;;;18.7;;
69404;SDS011;57084;52.046;5.632;2023-01-23T03:38:00;21.8;;;18.7;;
69404;SDS011;57084;52.046;5.632;2023-01-23T03:39:00;21.8;;;18.7;;
69404;SDS011;57084;52.046;5.632;2023-01-23T03:40:01;22.3;;;18.0;;
69404;SDS011;57084;52.046;5.632;2023-01-23T03:41:00;22.3;;;18.0;;
69404;SDS011;57084;52.046;5.632;2023-01-23T03:42:00;22.3;;;18.0;;
69404;SDS011;57084;52.046;5.632;2023-01-23T03:43:00;22.3;;;18.0;;
69404;SDS011;57084;52.046;5.632;2023-01-23T03:44:00;22.3;;;18.0;;
69404;SDS011;57084;52.046;5.632;2023-01-23T03:45:00;20.5;;;18.5;;
69404;SDS011;57084;52.046;5.632;2023-01-23T03:46:00;20.5;;;18.5;;
69404;SDS011;57084;52.046;5.632;2023-01-23T03:47:00;20.5;;;18.5;;
69404;SDS011;57084;52.046;5.632;2023-01-23T03:48:00;20.5;;;18.5;;
69404;SDS011;57084;52.046;5.632;2023-01-23T03:49:00;20.5;;;18.5;;
69404;SDS011;57084;52.046;5.632;2023-01-23T03:50:00;20.8;;;17.7;;
69404;SDS011;57084;52.046;5.632;2023-01-23T03:51:00;20.8;;;17.7;;
69404;SDS011;57084;52.046;5.632;2023-01-23T03:52:01;20.8;;;17.7;;
69404;SDS011;57084;52.046;5.632;2023-01-23T03:53:00;20.8;;;17.7;;
69404;SDS011;57084;52.046;5.632;2023-01-23T03:54:00;20.8;;;17.7;;
69404;SDS011;57084;52.046;5.632;2023-01-23T03:55:00;23.3;;;18.3;;
69404;SDS011;57084;52.046;5.632;2023-01-23T03:56:00;23.3;;;18.3;;
69404;SDS011;57084;52.046;5.632;2023-01-23T03:57:00;23.3;;;18.3;;
69404;SDS011;57084;52.046;5.632;2023-01-23T03:58:00;23.3;;;18.3;;
69404;SDS011;57084;52.046;5.632;2023-01-23T03:59:00;23.3;;;18.3;;
69404;SDS011;57084;52.046;5.632;2023-01-23T04:00:00;20.9;;;18.6;;
69404;SDS011;57084;52.046;5.632;2023-01-23T04:01:03;20.9;;;18.6;;
69404;SDS011;57084;52.046;5.632;2023-01-23T04:02:00;20.9;;;18.6;;
69404;SDS011;57084;52.046;5.632;2023-01-23T04:03:00;20.9;;;18.6;;
69404;SDS011;57084;52.046;5.632;2023-01-23T04:04:00;20.9;;;18.6;;
69404;SDS011;57084;52.046;5.632;2023-01-23T04:05:00;22.0;;;19.7;;
69404;SDS011;57084;52.046;5.632;2023-01-23T04:06:01;22.0;;;19.7;;
69404;SDS011;57084;52.046;5.632;2023-01-23T04:07:01;22.0;;;19.7;;
69404;SDS011;57084;52.046;5.632;2023-01-23T04:08:01;22.0;;;19.7;;
69404;SDS011;57084;52.046;5.632;2023-01-23T04:09:00;22.0;;;19.7;;
69404;SDS011;57084;52.046;5.632;2023-01-23T04:10:00;24.4;;;20.0;;
69404;SDS011;57084;52.046;5.632;2023-01-23T04:11:02;24.4;;;20.0;;
69404;SDS011;57084;52.046;5.632;2023-01-23T04:12:00;24.4;;;20.0;;
69404;SDS011;57084;52.046;5.632;2023-01-23T04:13:00;24.4;;;20.0;;
69404;SDS011;57084;52.046;5.632;2023-01-23T04:14:00;24.4;;;20.0;;
69404;SDS011;57084;52.046;5.632;2023-01-23T04:15:00;26.0;;;18.6;;
69404;SDS011;57084;52.046;5.632;2023-01-23T04:16:01;26.0;;;18.6;;
69404;SDS011;57084;52.046;5.632;2023-01-23T04:17:00;26.0;;;18.6;;
69404;SDS011;57084;52.046;5.632;2023-01-23T04:18:00;26.0;;;18.6;;
69404;SDS011;57084;52.046;5.632;2023-01-23T04:19:00;26.0;;;18.6;;
69404;SDS011;57084;52.046;5.632;2023-01-23T04:20:00;26.0;;;18.6;;
69404;SDS011;57084;52.046;5.632;2023-01-23T04:21:00;22.7;;;20.3;;
69404;SDS011;57084;52.046;5.632;2023-01-23T04:22:00;22.7;;;20.3;;
69404;SDS011;57084;52.046;5.632;2023-01-23T04:23:00;22.7;;;20.3;;
69404;SDS011;57084;52.046;5.632;2023-01-23T04:24:00;22.7;;;20.3;;
69404;SDS011;57084;52.046;5.632;2023-01-23T04:25:00;22.7;;;20.3;;
69404;SDS011;57084;52.046;5.632;2023-01-23T04:26:00;24.1;;;20.5;;
69404;SDS011;57084;52.046;5.632;2023-01-23T04:27:00;24.1;;;20.5;;
69404;SDS011;57084;52.046;5.632;2023-01-23T04:28:00;24.1;;;20.5;;
69404;SDS011;57084;52.046;5.632;2023-01-23T04:29:00;24.1;;;20.5;;
69404;SDS011;57084;52.046;5.632;2023-01-23T04:30:00;24.1;;;20.5;;
69404;SDS011;57084;52.046;5.632;2023-01-23T04:31:00;25.0;;;20.1;;
69404;SDS011;57084;52.046;5.632;2023-01-23T04:32:00;25.0;;;20.1;;
69404;SDS011;57084;52.046;5.632;2023-01-23T04:33:00;25.0;;;20.1;;
69404;SDS011;57084;52.046;5.632;2023-01-23T04:34:00;25.0;;;20.1;;
69404;SDS011;57084;52.046;5.632;2023-01-23T04:35:00;25.0;;;20.1;;
69404;SDS011;57084;52.046;5.632;2023-01-23T04:36:04;25.7;;;19.9;;
69404;SDS011;57084;52.046;5.632;2023-01-23T04:37:00;25.7;;;19.9;;
69404;SDS011;57084;52.046;5.632;2023-01-23T04:38:00;25.7;;;19.9;;
69404;SDS011;57084;52.046;5.632;2023-01-23T04:39:00;25.7;;;19.9;;
69404;SDS011;57084;52.046;5.632;2023-01-23T04:40:00;25.7;;;19.9;;
69404;SDS011;57084;52.046;5.632;2023-01-23T04:41:00;24.0;;;21.5;;
69404;SDS011;57084;52.046;5.632;2023-01-23T04:42:00;24.0;;;21.5;;
69404;SDS011;57084;52.046;5.632;2023-01-23T04:43:00;24.0;;;21.5;;
69404;SDS011;57084;52.046;5.632;2023-01-23T04:44:00;24.0;;;21.5;;
69404;SDS011;57084;52.046;5.632;2023-01-23T04:45:00;24.0;;;21.5;;
69404;SDS011;57084;52.046;5.632;2023-01-23T04:46:00;24.2;;;20.6;;
69404;SDS011;57084;52.046;5.632;2023-01-23T04:47:00;24.2;;;20.6;;
69404;SDS011;57084;52.046;5.632;2023-01-23T04:48:00;24.2;;;20.6;;
69404;SDS011;57084;52.046;5.632;2023-01-23T04:49:00;24.2;;;20.6;;
69404;SDS011;57084;52.046;5.632;2023-01-23T04:50:00;24.2;;;20.6;;
69404;SDS011;57084;52.046;5.632;2023-01-23T04:51:00;25.1;;;20.7;;
69404;SDS011;57084;52.046;5.632;2023-01-23T04:52:00;25.1;;;20.7;;
69404;SDS011;57084;52.046;5.632;2023-01-23T04:53:01;25.1;;;20.7;;
69404;SDS011;57084;52.046;5.632;2023-01-23T04:54:00;25.1;;;20.7;;
69404;SDS011;57084;52.046;5.632;2023-01-23T04:55:00;25.1;;;20.7;;
69404;SDS011;57084;52.046;5.632;2023-01-23T04:56:01;26.2;;;21.2;;
69404;SDS011;57084;52.046;5.632;2023-01-23T04:57:00;26.2;;;21.2;;
69404;SDS011;57084;52.046;5.632;2023-01-23T04:58:01;26.2;;;21.2;;
69404;SDS011;57084;52.046;5.632;2023-01-23T04:59:00;26.2;;;21.2;;
69404;SDS011;57084;52.046;5.632;2023-01-23T05:00:00;26.2;;;21.2;;
69404;SDS011;57084;52.046;5.632;2023-01-23T05:01:01;22.2;;;18.2;;
69404;SDS011;57084;52.046;5.632;2023-01-23T05:02:00;22.2;;;18.2;;
69404;SDS011;57084;52.046;5.632;2023-01-23T05:03:00;22.2;;;18.2;;
69404;SDS011;57084;52.046;5.632;2023-01-23T05:04:00;22.2;;;18.2;;
69404;SDS011;57084;52.046;5.632;2023-01-23T05:05:00;22.2;;;18.2;;
69404;SDS011;57084;52.046;5.632;2023-01-23T05:06:00;22.8;;;19.7;;
69404;SDS011;57084;52.046;5.632;2023-01-23T05:07:00;22.8;;;19.7;;
69404;SDS011;57084;52.046;5.632;2023-01-23T05:08:00;22.8;;;19.7;;
69404;SDS011;57084;52.046;5.632;2023-01-23T05:09:00;22.8;;;19.7;;
69404;SDS011;57084;52.046;5.632;2023-01-23T05:10:00;22.8;;;19.7;;
69404;SDS011;57084;52.046;5.632;2023-01-23T05:11:00;23.9;;;21.4;;
69404;SDS011;57084;52.046;5.632;2023-01-23T05:12:00;23.9;;;21.4;;
69404;SDS011;57084;52.046;5.632;2023-01-23T05:13:00;23.9;;;21.4;;
69404;SDS011;57084;52.046;5.632;2023-01-23T05:14:00;23.9;;;21.4;;
69404;SDS011;57084;52.046;5.632;2023-01-23T05:15:00;23.9;;;21.4;;
69404;SDS011;57084;52.046;5.632;2023-01-23T05:16:00;23.8;;;21.4;;
69404;SDS011;57084;52.046;5.632;2023-01-23T05:17:00;23.8;;;21.4;;
69404;SDS011;57084;52.046;5.632;2023-01-23T05:18:00;23.8;;;21.4;;
69404;SDS011;57084;52.046;5.632;2023-01-23T05:19:00;23.8;;;21.4;;
69404;SDS011;57084;52.046;5.632;2023-01-23T05:20:00;23.8;;;21.4;;
69404;SDS011;57084;52.046;5.632;2023-01-23T05:21:00;22.3;;;19.9;;
69404;SDS011;57084;52.046;5.632;2023-01-23T05:22:00;22.3;;;19.9;;
69404;SDS011;57084;52.046;5.632;2023-01-23T05:23:00;22.3;;;19.9;;
69404;SDS011;57084;52.046;5.632;2023-01-23T05:24:00;22.3;;;19.9;;
69404;SDS011;57084;52.046;5.632;2023-01-23T05:25:00;22.3;;;19.9;;
69404;SDS011;57084;52.046;5.632;2023-01-23T05:26:00;23.6;;;21.3;;
69404;SDS011;57084;52.046;5.632;2023-01-23T05:27:00;23.6;;;21.3;;
69404;SDS011;57084;52.046;5.632;2023-01-23T05:28:00;23.6;;;21.3;;
69404;SDS011;57084;52.046;5.632;2023-01-23T05:29:00;23.6;;;21.3;;
69404;SDS011;57084;52.046;5.632;2023-01-23T05:30:00;23.6;;;21.3;;
69404;SDS011;57084;52.046;5.632;2023-01-23T05:31:00;20.7;;;18.5;;
69404;SDS011;57084;52.046;5.632;2023-01-23T05:32:00;20.7;;;18.5;;
69404;SDS011;57084;52.046;5.632;2023-01-23T05:33:00;20.7;;;18.5;;
69404;SDS011;57084;52.046;5.632;2023-01-23T05:34:00;20.7;;;18.5;;
69404;SDS011;57084;52.046;5.632;2023-01-23T05:35:00;20.7;;;18.5;;
69404;SDS011;57084;52.046;5.632;2023-01-23T05:36:01;24.3;;;21.2;;
69404;SDS011;57084;52.046;5.632;2023-01-23T05:37:00;24.3;;;21.2;;
69404;SDS011;57084;52.046;5.632;2023-01-23T05:38:00;24.3;;;21.2;;
69404;SDS011;57084;52.046;5.632;2023-01-23T05:39:00;24.3;;;21.2;;
69404;SDS011;57084;52.046;5.632;2023-01-23T05:40:01;24.3;;;21.2;;
69404;SDS011;57084;52.046;5.632;2023-01-23T05:41:00;22.1;;;19.9;;
69404;SDS011;57084;52.046;5.632;2023-01-23T05:42:01;22.1;;;19.9;;
69404;SDS011;57084;52.046;5.632;2023-01-23T05:43:00;22.1;;;19.9;;
69404;SDS011;57084;52.046;5.632;2023-01-23T05:44:00;22.1;;;19.9;;
69404;SDS011;57084;52.046;5.632;2023-01-23T05:45:00;22.1;;;19.9;;
69404;SDS011;57084;52.046;5.632;2023-01-23T05:46:01;23.0;;;20.7;;
69404;SDS011;57084;52.046;5.632;2023-01-23T05:47:00;23.0;;;20.7;;
69404;SDS011;57084;52.046;5.632;2023-01-23T05:48:00;23.0;;;20.7;;
69404;SDS011;57084;52.046;5.632;2023-01-23T05:49:00;23.0;;;20.7;;
69404;SDS011;57084;52.046;5.632;2023-01-23T05:50:00;23.0;;;20.7;;
69404;SDS011;57084;52.046;5.632;2023-01-23T05:51:01;24.3;;;20.4;;
69404;SDS011;57084;52.046;5.632;2023-01-23T05:52:00;24.3;;;20.4;;
69404;SDS011;57084;52.046;5.632;2023-01-23T05:53:00;24.3;;;20.4;;
69404;SDS011;57084;52.046;5.632;2023-01-23T05:54:01;24.3;;;20.4;;
69404;SDS011;57084;52.046;5.632;2023-01-23T05:55:00;24.3;;;20.4;;
69404;SDS011;57084;52.046;5.632;2023-01-23T05:56:04;23.3;;;21.0;;
69404;SDS011;57084;52.046;5.632;2023-01-23T05:57:00;23.3;;;21.0;;
69404;SDS011;57084;52.046;5.632;2023-01-23T05:58:00;23.3;;;21.0;;
69404;SDS011;57084;52.046;5.632;2023-01-23T05:59:00;23.3;;;21.0;;
69404;SDS011;57084;52.046;5.632;2023-01-23T06:00:00;23.3;;;21.0;;
69404;SDS011;57084;52.046;5.632;2023-01-23T06:01:01;27.0;;;22.1;;